createdAt,value
2022-08-19T00:03:37.331Z,11.47
2022-08-19T00:08:35.330Z,11.20
2022-08-19T00:13:33.791Z,11.83
2022-08-19T00:18:32.882Z,10.70
2022-08-19T00:23:35.097Z,11.90
2022-08-19T00:28:33.847Z,11.40
2022-08-19T00:33:34.572Z,12.30
2022-08-19T00:38:37.353Z,11.30
2022-08-19T00:43:36.266Z,11.87
2022-08-19T00:48:34.914Z,12.20
2022-08-19T00:53:35.433Z,11.40
2022-08-19T00:58:36.540Z,10.00
2022-08-19T01:03:56.882Z,10.77
2022-08-19T01:08:53.886Z,10.20
2022-08-19T01:13:54.092Z,12.00
2022-08-19T01:18:52.468Z,10.67
2022-08-19T01:23:52.248Z,11.63
2022-08-19T01:28:53.099Z,10.60
2022-08-19T01:33:53.316Z,10.90
2022-08-19T01:38:54.737Z,11.93
2022-08-19T01:44:13.447Z,11.30
2022-08-19T01:49:13.279Z,11.90
2022-08-19T01:54:23.464Z,12.20
2022-08-19T01:59:26.638Z,12.43
2022-08-19T02:04:26.419Z,12.10
2022-08-19T02:09:25.812Z,12.20
2022-08-19T02:14:23.988Z,11.30
2022-08-19T02:19:21.979Z,11.70
2022-08-19T02:24:19.943Z,12.10
2022-08-19T02:29:19.419Z,9.70
2022-08-19T02:34:17.715Z,10.10
2022-08-19T02:39:15.769Z,9.80
2022-08-19T02:44:26.749Z,9.80
2022-08-19T02:49:34.607Z,10.70
2022-08-19T02:54:32.897Z,11.00
2022-08-19T02:59:32.761Z,10.87
2022-08-19T03:04:32.241Z,12.30
2022-08-19T03:09:31.113Z,11.97
2022-08-19T03:14:32.052Z,10.40
2022-08-19T03:19:32.395Z,11.20
2022-08-19T03:24:31.599Z,12.40
2022-08-19T03:29:32.573Z,11.90
2022-08-19T03:34:35.117Z,11.37
2022-08-19T03:39:33.337Z,12.20
2022-08-19T03:44:33.334Z,12.77
2022-08-19T03:49:36.063Z,12.27
2022-08-19T03:54:35.012Z,11.80
2022-08-19T03:59:36.264Z,12.97
2022-08-19T04:04:35.735Z,12.70
2022-08-19T04:09:37.169Z,11.77
2022-08-19T04:14:36.272Z,12.20
2022-08-19T04:19:36.971Z,11.13
2022-08-19T04:24:36.194Z,11.67
2022-08-19T04:29:35.087Z,11.03
2022-08-19T04:34:33.106Z,11.33
2022-08-19T04:39:50.758Z,9.93
2022-08-19T04:44:48.783Z,10.57
2022-08-19T04:49:47.139Z,10.97
2022-08-19T04:54:46.543Z,11.90
2022-08-19T04:59:45.195Z,11.17
2022-08-19T05:04:43.339Z,11.00
2022-08-19T05:09:58.170Z,10.43
2022-08-19T05:14:59.275Z,9.80
2022-08-19T05:20:15.116Z,10.30
2022-08-19T05:25:16.337Z,11.47
2022-08-19T05:30:15.912Z,9.50
2022-08-19T05:35:14.004Z,10.90
2022-08-19T05:40:13.038Z,11.43
2022-08-19T05:45:12.294Z,11.90
2022-08-19T05:50:13.142Z,11.23
2022-08-19T05:55:11.449Z,11.83
2022-08-19T06:00:11.823Z,11.87
2022-08-19T06:05:12.634Z,11.20
2022-08-19T06:10:12.968Z,10.50
2022-08-19T06:15:13.611Z,11.87
2022-08-19T06:20:16.006Z,12.97
2022-08-19T06:25:15.144Z,12.47
2022-08-19T06:30:14.461Z,12.63
2022-08-19T06:35:15.552Z,11.90
2022-08-19T06:40:14.521Z,12.10
2022-08-19T06:45:12.584Z,12.73
2022-08-19T06:50:10.887Z,12.80
2022-08-19T06:55:10.968Z,11.10
2022-08-19T07:00:13.019Z,12.40
2022-08-19T07:05:11.433Z,11.63
2022-08-19T07:10:13.248Z,12.90
2022-08-19T07:15:12.402Z,13.37
2022-08-19T07:20:11.070Z,13.67
2022-08-19T07:25:10.614Z,13.20
2022-08-19T07:30:14.320Z,14.20
2022-08-19T07:35:12.297Z,15.73
2022-08-19T07:40:10.968Z,15.17
2022-08-19T07:45:11.436Z,12.30
2022-08-19T07:50:12.097Z,13.50
2022-08-19T07:55:39.940Z,15.63
2022-08-19T08:00:31.377Z,14.17
2022-08-19T08:05:46.949Z,14.80
2022-08-19T08:10:53.067Z,14.00
2022-08-19T08:15:56.602Z,15.30
2022-08-19T08:20:54.744Z,15.60
2022-08-19T08:25:53.416Z,16.20
2022-08-19T08:30:52.813Z,14.40
2022-08-19T08:35:53.778Z,15.73
2022-08-19T08:40:57.390Z,16.50
2022-08-19T08:46:01.224Z,16.67
2022-08-19T08:51:02.948Z,17.60
2022-08-19T08:56:06.607Z,17.90
2022-08-19T09:01:04.779Z,17.90
2022-08-19T09:06:12.034Z,17.27
2022-08-19T09:11:14.532Z,16.03
2022-08-19T09:16:32.714Z,16.73
2022-08-19T09:21:34.232Z,16.80
2022-08-19T09:26:47.572Z,14.90
2022-08-19T09:31:50.866Z,16.47
2022-08-19T09:36:54.579Z,15.93
2022-08-19T09:41:53.961Z,15.27
2022-08-19T09:46:52.244Z,14.40
2022-08-19T09:51:57.120Z,14.00
2022-08-19T09:56:55.322Z,15.60
2022-08-19T10:01:53.412Z,14.30
2022-08-19T10:06:53.745Z,15.20
2022-08-19T10:11:54.893Z,14.57
2022-08-19T10:16:53.190Z,14.90
2022-08-19T10:21:52.508Z,13.67
2022-08-19T10:26:55.968Z,14.20
2022-08-19T10:32:01.314Z,13.90
2022-08-19T10:37:02.634Z,14.40
2022-08-19T10:42:00.964Z,14.30
2022-08-19T10:46:59.908Z,12.90
2022-08-19T10:52:20.734Z,13.63
2022-08-19T10:57:27.928Z,13.47
2022-08-19T11:02:35.210Z,13.53
2022-08-19T11:07:33.203Z,13.40
2022-08-19T11:12:33.422Z,12.90
2022-08-19T11:17:32.462Z,13.50
2022-08-19T11:22:35.354Z,13.47
2022-08-19T11:27:43.682Z,13.23
2022-08-19T11:32:45.867Z,13.67
2022-08-19T11:37:46.855Z,11.40
2022-08-19T11:42:58.321Z,12.33
2022-08-19T11:47:56.937Z,11.20
2022-08-19T11:52:57.164Z,11.90
2022-08-19T11:57:56.577Z,11.27
2022-08-19T12:02:55.800Z,9.67
2022-08-19T12:07:55.428Z,10.43
2022-08-19T12:12:58.562Z,9.63
2022-08-19T12:17:59.545Z,10.30
2022-08-19T12:22:57.857Z,10.20
2022-08-19T12:27:57.511Z,9.80
2022-08-19T12:32:55.984Z,9.40
2022-08-19T12:37:57.811Z,8.97
2022-08-19T12:42:56.276Z,8.27
2022-08-19T12:47:55.330Z,9.50
2022-08-19T12:52:53.650Z,8.53
2022-08-19T12:57:53.427Z,8.60
2022-08-19T13:02:54.231Z,8.43
2022-08-19T13:07:56.550Z,9.10
2022-08-19T13:12:56.631Z,8.93
2022-08-19T13:17:57.651Z,8.67
2022-08-19T13:22:58.102Z,9.73
2022-08-19T13:27:57.558Z,9.47
2022-08-19T13:33:15.969Z,9.00
2022-08-19T13:38:16.387Z,9.80
2022-08-19T13:43:17.841Z,11.60
2022-08-19T13:48:21.261Z,11.40
2022-08-19T13:53:19.715Z,10.10
2022-08-19T13:58:19.113Z,10.30
2022-08-19T14:03:17.332Z,9.40
2022-08-19T14:08:15.435Z,9.93
2022-08-19T14:13:16.800Z,10.60
2022-08-19T14:18:16.790Z,10.80
2022-08-19T14:23:14.991Z,10.07
2022-08-19T14:28:13.033Z,10.20
2022-08-19T14:33:11.130Z,10.40
2022-08-19T14:38:18.270Z,11.23
2022-08-19T14:43:23.078Z,10.60
2022-08-19T14:48:22.426Z,9.90
2022-08-19T14:53:28.569Z,9.90
2022-08-19T14:58:29.501Z,9.40
2022-08-19T15:03:28.379Z,10.10
2022-08-19T15:08:28.930Z,10.63
2022-08-19T15:13:29.950Z,9.57
2022-08-19T15:18:28.047Z,11.27
2022-08-19T15:23:26.072Z,10.20
2022-08-19T15:28:27.006Z,12.47
2022-08-19T15:33:25.057Z,12.40
2022-08-19T15:38:23.797Z,11.47
2022-08-19T15:43:23.191Z,11.43
2022-08-19T15:48:22.550Z,11.00
2022-08-19T15:53:21.001Z,11.40
2022-08-19T15:58:36.534Z,11.90
2022-08-19T16:03:53.475Z,9.40
2022-08-19T16:08:51.603Z,8.87
2022-08-19T16:13:51.716Z,9.30
2022-08-19T16:18:53.582Z,8.07
2022-08-19T16:23:51.732Z,9.00
2022-08-19T16:28:49.820Z,8.50
2022-08-19T16:33:51.543Z,8.73
2022-08-19T16:38:49.598Z,7.67
2022-08-19T16:43:49.290Z,7.27
2022-08-19T16:48:47.733Z,6.30
2022-08-19T16:53:47.199Z,5.93
2022-08-19T16:58:45.297Z,6.00
2022-08-19T17:03:43.430Z,6.37
2022-08-19T17:08:44.660Z,5.60
2022-08-19T17:13:47.635Z,6.13
2022-08-19T17:18:45.979Z,5.80
2022-08-19T17:23:44.300Z,6.07
2022-08-19T17:28:42.465Z,6.17
2022-08-19T17:33:42.310Z,5.60
2022-08-19T17:38:40.887Z,6.50
2022-08-19T17:43:42.829Z,5.90
2022-08-19T17:48:43.346Z,6.10
2022-08-19T17:53:41.455Z,6.20
2022-08-19T17:58:41.498Z,6.50
2022-08-19T18:03:42.556Z,6.33
2022-08-19T18:08:40.924Z,7.40
2022-08-19T18:13:40.606Z,6.80
2022-08-19T18:18:39.547Z,7.53
2022-08-19T18:23:44.336Z,8.07
2022-08-19T18:28:49.973Z,8.30
2022-08-19T18:33:52.572Z,8.60
2022-08-19T18:39:09.456Z,9.67
2022-08-19T18:44:28.508Z,13.27
2022-08-19T18:49:29.108Z,15.50
2022-08-19T18:54:28.830Z,15.47
2022-08-19T18:59:28.419Z,15.83
2022-08-19T19:04:29.551Z,16.33
2022-08-19T19:09:29.652Z,16.10
2022-08-19T19:14:48.201Z,16.70
2022-08-19T19:19:47.374Z,17.97
2022-08-19T19:24:50.714Z,16.30
2022-08-19T19:29:52.269Z,18.47
2022-08-19T19:34:50.815Z,15.97
2022-08-19T19:39:50.518Z,16.97
2022-08-19T19:44:50.455Z,15.03
2022-08-19T19:55:18.421Z,14.83
2022-08-19T20:00:18.770Z,15.27
2022-08-19T20:05:17.045Z,14.23
2022-08-19T20:10:16.588Z,13.90
2022-08-19T20:15:15.435Z,15.30
2022-08-19T20:20:15.333Z,15.10
2022-08-19T20:25:15.367Z,14.40
2022-08-19T20:30:19.330Z,13.07
2022-08-19T20:35:21.407Z,13.30
2022-08-19T20:40:19.585Z,14.00
2022-08-19T20:45:32.710Z,13.47
2022-08-19T20:50:32.202Z,11.87
2022-08-19T20:55:30.561Z,12.23
2022-08-19T21:00:30.519Z,12.60
2022-08-19T21:05:30.524Z,12.70
2022-08-19T21:10:28.918Z,12.80
2022-08-19T21:15:27.096Z,13.00
2022-08-19T21:20:26.515Z,13.83
2022-08-19T21:25:24.790Z,13.07
2022-08-19T21:30:23.050Z,12.53
2022-08-19T21:35:21.626Z,13.10
2022-08-19T21:40:21.467Z,12.40
2022-08-19T21:45:21.141Z,12.13
2022-08-19T21:50:19.807Z,11.80
2022-08-19T21:55:18.014Z,12.83
2022-08-19T22:00:20.991Z,13.03
2022-08-19T22:05:22.885Z,11.60
2022-08-19T22:10:22.199Z,11.50
2022-08-19T22:15:22.197Z,11.67
2022-08-19T22:20:23.532Z,11.47
2022-08-19T22:25:31.704Z,12.03
2022-08-19T22:30:33.286Z,11.60
2022-08-19T22:35:34.418Z,10.23
2022-08-19T22:40:32.612Z,11.10
2022-08-19T22:45:33.360Z,11.70
2022-08-19T22:50:31.433Z,11.57
2022-08-19T22:55:31.109Z,10.70
2022-08-19T23:00:31.613Z,12.00
2022-08-19T23:05:31.117Z,11.50
2022-08-19T23:10:29.844Z,12.63
2022-08-19T23:15:30.300Z,14.00
2022-08-19T23:20:33.187Z,12.77
2022-08-19T23:25:33.246Z,14.07
2022-08-19T23:30:34.228Z,15.40
2022-08-19T23:35:38.267Z,14.00
2022-08-19T23:40:38.521Z,13.10
2022-08-19T23:45:39.247Z,13.40
2022-08-19T23:50:41.061Z,13.57
2022-08-19T23:55:41.454Z,12.87
